Time;durP1;ratioP1;P1;durP2;ratioP2;P2;SDS_P1;SDS_P2;PMS_P1;PMS_P2;Temp;Humidity;BMP_temperature;BMP_pressure;BME280_temperature;BME280_humidity;BME280_pressure;Samples;Min_cycle;Max_cycle;Signal;HPM_P1;HPM_P2
2023/07/21 00:01:08;;;;;;;14.80;2.22;;;23.60;51.10;;;;;;5010122;28;20038;-45
2023/07/21 00:03:34;;;;;;;9.43;2.25;;;23.60;50.70;;;;;;5007132;28;20083;-46
2023/07/21 00:06:03;;;;;;;15.35;1.73;;;23.60;51.10;;;;;;5011558;28;20038;-44
2023/07/21 00:08:30;;;;;;;11.82;1.70;;;23.60;50.90;;;;;;5006333;28;20034;-44
2023/07/21 00:10:57;;;;;;;12.60;1.70;;;23.60;51.10;;;;;;5005415;28;20033;-47
2023/07/21 00:13:23;;;;;;;8.02;1.58;;;23.50;50.90;;;;;;5011737;28;20022;-47
2023/07/21 00:15:49;;;;;;;8.23;1.83;;;23.50;51.00;;;;;;5006933;28;20030;-44
2023/07/21 00:18:16;;;;;;;8.80;1.50;;;23.50;50.90;;;;;;5009858;28;20026;-45
2023/07/21 00:20:42;;;;;;;6.70;1.60;;;23.50;51.30;;;;;;5004963;28;20104;-44
2023/07/21 00:23:08;;;;;;;9.05;1.58;;;23.50;50.90;;;;;;5007886;28;20057;-46
2023/07/21 00:25:34;;;;;;;8.90;1.70;;;23.50;50.60;;;;;;5008974;28;20046;-44
2023/07/21 00:27:59;;;;;;;5.47;1.52;;;23.50;50.90;;;;;;5001822;28;20489;-45
2023/07/21 00:30:25;;;;;;;5.50;1.85;;;23.40;51.10;;;;;;5008609;28;20022;-45
2023/07/21 00:32:51;;;;;;;6.07;1.40;;;23.50;50.80;;;;;;5005178;28;20030;-44
2023/07/21 00:35:17;;;;;;;7.75;1.67;;;23.40;50.80;;;;;;5005746;28;20035;-46
2023/07/21 00:37:43;;;;;;;4.15;1.60;;;23.40;50.20;;;;;;5005483;28;20029;-44
2023/07/21 00:40:10;;;;;;;4.53;1.33;;;23.40;50.20;;;;;;5009778;28;20048;-44
2023/07/21 00:42:36;;;;;;;4.60;1.60;;;23.40;50.30;;;;;;5010685;28;20026;-44
2023/07/21 00:45:03;;;;;;;4.70;1.30;;;23.40;50.10;;;;;;5011264;28;20034;-45
2023/07/21 00:47:29;;;;;;;4.82;1.38;;;23.40;50.20;;;;;;5005005;28;20137;-44
2023/07/21 00:49:56;;;;;;;4.80;1.60;;;23.40;50.30;;;;;;5007213;28;20440;-44
2023/07/21 00:52:23;;;;;;;5.75;1.50;;;23.40;50.10;;;;;;5006057;28;20018;-44
2023/07/21 00:54:49;;;;;;;5.68;1.50;;;23.40;50.10;;;;;;5020617;28;20084;-44
2023/07/21 00:57:16;;;;;;;3.30;1.55;;;23.40;50.20;;;;;;5009663;28;20751;-44
2023/07/21 00:59:42;;;;;;;3.35;1.20;;;23.40;50.10;;;;;;5008632;28;20065;-44
2023/07/21 01:02:08;;;;;;;2.22;1.10;;;23.40;50.10;;;;;;5004822;28;20505;-44
2023/07/21 01:04:35;;;;;;;6.05;1.45;;;23.40;50.30;;;;;;5002095;28;20022;-44
2023/07/21 01:07:11;;;;;;;6.50;1.27;;;23.40;50.10;;;;;;5001401;28;20032;-44
2023/07/21 01:09:39;;;;;;;3.72;1.30;;;23.40;50.00;;;;;;5005335;28;20121;-45
2023/07/21 01:12:06;;;;;;;5.63;1.42;;;23.40;50.10;;;;;;5002991;28;20037;-44
2023/07/21 01:14:35;;;;;;;3.42;1.20;;;23.40;50.10;;;;;;5004514;28;20040;-44
2023/07/21 01:17:02;;;;;;;3.72;1.20;;;23.40;50.20;;;;;;5005187;28;20429;-44
2023/07/21 01:19:30;;;;;;;2.90;1.40;;;23.40;50.20;;;;;;5014081;28;20371;-44
2023/07/21 01:22:05;;;;;;;2.90;1.30;;;23.40;50.30;;;;;;5008784;28;20053;-43
2023/07/21 01:24:46;;;;;;;6.40;1.80;;;23.40;50.20;;;;;;5012557;28;20452;-44
2023/07/21 01:27:15;;;;;;;3.30;1.20;;;23.40;50.20;;;;;;5010170;28;20029;-44
2023/07/21 01:29:43;;;;;;;4.65;1.30;;;23.40;50.10;;;;;;5013341;28;20095;-44
2023/07/21 01:32:12;;;;;;;4.18;1.45;;;23.40;50.30;;;;;;5008452;28;20493;-43
2023/07/21 01:34:39;;;;;;;3.88;1.80;;;23.40;50.20;;;;;;5011883;28;20478;-44
2023/07/21 01:37:09;;;;;;;4.60;1.38;;;23.40;50.30;;;;;;5005503;28;20030;-43
2023/07/21 01:39:36;;;;;;;2.83;1.27;;;23.30;50.10;;;;;;5007154;28;20028;-45
2023/07/21 01:42:04;;;;;;;6.57;1.20;;;23.40;50.10;;;;;;5010602;28;20497;-44
2023/07/21 01:44:30;;;;;;;2.72;1.20;;;23.30;50.10;;;;;;5003355;28;20382;-44
2023/07/21 01:46:56;;;;;;;2.63;1.17;;;23.30;50.10;;;;;;5013551;28;20026;-44
2023/07/21 01:49:22;;;;;;;3.28;1.30;;;23.30;50.00;;;;;;5010845;28;20032;-46
2023/07/21 01:51:50;;;;;;;2.45;0.90;;;23.30;50.20;;;;;;5004804;28;20485;-47
2023/07/21 01:54:52;;;;;;;2.90;1.38;;;23.30;50.10;;;;;;5010438;28;20038;-44
2023/07/21 01:57:24;;;;;;;3.47;1.40;;;23.30;50.00;;;;;;4972479;28;20039;-46
2023/07/21 01:59:50;;;;;;;5.00;1.23;;;23.30;50.20;;;;;;4956346;28;20074;-44
2023/07/21 02:02:18;;;;;;;2.63;1.48;;;23.30;50.10;;;;;;4955932;28;20045;-45
2023/07/21 02:04:51;;;;;;;6.82;1.60;;;23.30;50.10;;;;;;4973219;28;20041;-47
2023/07/21 02:07:20;;;;;;;4.30;1.13;;;23.30;50.10;;;;;;4972062;28;20059;-46
2023/07/21 02:09:50;;;;;;;4.25;1.60;;;23.30;50.10;;;;;;4971791;28;20497;-44
2023/07/21 02:12:17;;;;;;;4.82;1.60;;;23.30;50.20;;;;;;4952818;28;20073;-45
2023/07/21 02:14:57;;;;;;;5.47;1.30;;;23.30;50.10;;;;;;4951555;28;20034;-46
2023/07/21 02:17:23;;;;;;;5.10;1.20;;;23.30;50.20;;;;;;4972264;28;20441;-44
2023/07/21 02:19:49;;;;;;;2.60;1.17;;;23.30;50.10;;;;;;4950001;28;20130;-44
2023/07/21 02:22:15;;;;;;;4.78;1.77;;;23.30;50.00;;;;;;4955946;28;20038;-44
2023/07/21 02:24:41;;;;;;;3.53;1.50;;;23.30;50.10;;;;;;4964978;28;20030;-45
2023/07/21 02:27:07;;;;;;;9.10;1.50;;;23.30;49.90;;;;;;4952795;28;20523;-49
2023/07/21 02:29:33;;;;;;;2.30;1.20;;;23.30;50.00;;;;;;4972043;28;20054;-45
2023/07/21 02:31:59;;;;;;;3.00;1.00;;;23.30;50.00;;;;;;4974710;28;20073;-44
2023/07/21 02:34:25;;;;;;;2.20;1.17;;;23.30;49.80;;;;;;5005336;28;20030;-46
2023/07/21 02:36:53;;;;;;;6.30;1.70;;;23.30;50.00;;;;;;5008476;28;20029;-46
2023/07/21 02:39:18;;;;;;;3.83;1.40;;;23.30;49.90;;;;;;5010863;28;20249;-44
2023/07/21 02:41:45;;;;;;;4.70;1.38;;;23.30;50.10;;;;;;5011806;28;20401;-45
2023/07/21 02:44:10;;;;;;;2.47;1.20;;;23.20;50.00;;;;;;5012829;28;20041;-45
2023/07/21 02:46:36;;;;;;;4.15;1.27;;;23.30;50.00;;;;;;5002606;28;20033;-46
2023/07/21 02:49:02;;;;;;;3.97;1.25;;;23.30;50.00;;;;;;5012232;28;20061;-46
2023/07/21 02:51:28;;;;;;;2.40;1.20;;;23.30;50.00;;;;;;5012064;28;20489;-48
2023/07/21 02:53:54;;;;;;;3.00;1.45;;;23.30;49.90;;;;;;5011085;28;20037;-44
2023/07/21 02:56:21;;;;;;;3.95;1.40;;;23.30;50.00;;;;;;5011528;28;20037;-44
2023/07/21 02:58:58;;;;;;;3.33;1.15;;;23.30;49.90;;;;;;5012403;28;20076;-44
2023/07/21 03:01:24;;;;;;;3.47;1.38;;;23.30;50.10;;;;;;5009591;28;20042;-44
2023/07/21 03:03:54;;;;;;;5.88;1.73;;;23.30;50.00;;;;;;5008752;28;20032;-44
2023/07/21 03:06:20;;;;;;;;;;;23.30;50.00;;;;;;5011662;28;20029;-44
2023/07/21 03:08:46;;;;;;;4.97;1.30;;;23.20;50.00;;;;;;5012197;28;19909;-44
2023/07/21 03:11:14;;;;;;;7.13;1.23;;;23.30;50.00;;;;;;5011317;28;20022;-44
2023/07/21 03:13:54;;;;;;;2.83;1.17;;;23.20;50.00;;;;;;4999851;28;20493;-44
2023/07/21 03:16:20;;;;;;;3.95;1.65;;;23.20;49.90;;;;;;5010159;28;20049;-45
2023/07/21 03:18:52;;;;;;;2.92;1.30;;;23.20;50.60;;;;;;5003490;28;20060;-44
2023/07/21 03:21:20;;;;;;;5.32;1.73;;;23.20;50.00;;;;;;5001723;28;20041;-44
2023/07/21 03:23:47;;;;;;;5.10;1.40;;;23.20;50.00;;;;;;5011853;28;20552;-44
2023/07/21 03:26:18;;;;;;;3.75;1.35;;;23.20;50.10;;;;;;5010049;28;20029;-44
2023/07/21 03:28:44;;;;;;;3.08;1.27;;;23.20;50.20;;;;;;5004428;28;20029;-44
2023/07/21 03:31:11;;;;;;;3.20;1.38;;;23.20;50.20;;;;;;4999961;28;20030;-45
2023/07/21 03:33:43;;;;;;;2.78;1.20;;;23.20;50.20;;;;;;5010991;28;20449;-47
2023/07/21 03:36:14;;;;;;;3.85;1.13;;;23.20;50.40;;;;;;5003778;28;20023;-44
2023/07/21 03:38:41;;;;;;;3.47;1.30;;;23.20;50.30;;;;;;5012710;28;20075;-44
2023/07/21 03:41:08;;;;;;;7.30;1.70;;;23.20;50.40;;;;;;5006028;28;20033;-46
2023/07/21 03:43:37;;;;;;;5.25;1.35;;;23.20;50.40;;;;;;5010413;28;20026;-44
2023/07/21 03:46:05;;;;;;;3.45;1.30;;;23.20;50.40;;;;;;5008106;28;20038;-44
2023/07/21 03:48:39;;;;;;;3.30;1.20;;;23.20;50.50;;;;;;5000765;28;20045;-44
2023/07/21 03:51:08;;;;;;;2.88;1.33;;;23.20;51.10;;;;;;5007134;28;20108;-44
2023/07/21 03:53:40;;;;;;;3.78;1.55;;;23.20;50.50;;;;;;5011126;28;20029;-44
2023/07/21 03:56:09;;;;;;;3.60;1.50;;;23.20;50.60;;;;;;5007395;28;20477;-44
2023/07/21 03:58:34;;;;;;;3.92;1.42;;;23.20;50.60;;;;;;5010528;28;20028;-44
2023/07/21 04:01:00;;;;;;;4.15;1.40;;;23.20;50.70;;;;;;5002264;28;20537;-47
2023/07/21 04:03:27;;;;;;;3.10;1.27;;;23.20;50.80;;;;;;5002619;28;20025;-45
2023/07/21 04:05:53;;;;;;;4.68;1.60;;;23.20;50.80;;;;;;5011002;28;20057;-44
2023/07/21 04:08:19;;;;;;;3.95;1.38;;;23.20;50.80;;;;;;5011239;28;20108;-47
2023/07/21 04:10:46;;;;;;;5.15;1.70;;;23.20;50.90;;;;;;5003953;28;20496;-45
2023/07/21 04:13:11;;;;;;;4.03;1.60;;;23.10;50.90;;;;;;5009986;28;20053;-44
2023/07/21 04:15:37;;;;;;;5.05;1.50;;;23.10;50.90;;;;;;5008091;28;20111;-47
2023/07/21 04:18:04;;;;;;;5.72;1.60;;;23.20;51.10;;;;;;5009547;28;20026;-51
2023/07/21 04:20:31;;;;;;;6.70;1.70;;;23.10;51.00;;;;;;5012317;28;20029;-50
2023/07/21 04:22:58;;;;;;;3.40;1.77;;;23.10;51.00;;;;;;5010037;28;20442;-51
2023/07/21 04:25:24;;;;;;;3.45;1.33;;;23.20;51.10;;;;;;5010775;28;20108;-46
2023/07/21 04:27:53;;;;;;;4.40;1.60;;;23.10;51.00;;;;;;5005140;28;20556;-51
2023/07/21 04:30:19;;;;;;;3.95;1.83;;;23.10;51.00;;;;;;5010497;28;20121;-49
2023/07/21 04:32:45;;;;;;;4.00;1.70;;;23.20;51.10;;;;;;5008162;28;20053;-49
2023/07/21 04:35:11;;;;;;;4.50;1.65;;;23.20;51.10;;;;;;5009627;28;20095;-52
2023/07/21 04:37:41;;;;;;;6.35;1.90;;;23.20;51.20;;;;;;5005978;28;20101;-50
2023/07/21 04:40:11;;;;;;;6.25;2.20;;;23.20;51.20;;;;;;5009197;28;20037;-49
2023/07/21 04:42:39;;;;;;;4.55;1.77;;;23.20;51.10;;;;;;5009561;28;20026;-50
2023/07/21 04:45:11;;;;;;;5.75;2.15;;;23.20;51.70;;;;;;5001648;28;20493;-50
2023/07/21 04:47:43;;;;;;;7.57;2.83;;;23.20;51.10;;;;;;5003714;28;20109;-52
2023/07/21 04:50:17;;;;;;;6.05;2.67;;;23.20;51.10;;;;;;5010238;28;20030;-50
2023/07/21 04:52:43;;;;;;;4.70;2.40;;;23.20;51.10;;;;;;5009999;28;20084;-48
2023/07/21 04:55:09;;;;;;;7.13;2.03;;;23.20;51.10;;;;;;5011212;28;20049;-50
2023/07/21 04:57:36;;;;;;;8.85;2.20;;;23.20;51.80;;;;;;5009568;28;20018;-50
2023/07/21 05:00:02;;;;;;;5.38;2.22;;;23.10;51.00;;;;;;5003226;28;20075;-52
2023/07/21 05:02:30;;;;;;;4.82;2.10;;;23.10;51.00;;;;;;5003446;28;20037;-47
2023/07/21 05:05:01;;;;;;;8.55;4.00;;;23.10;51.10;;;;;;5008755;28;20417;-52
2023/07/21 05:07:29;;;;;;;10.00;4.63;;;23.10;51.10;;;;;;5008984;28;20091;-52
2023/07/21 05:09:59;;;;;;;16.25;4.70;;;23.10;51.10;;;;;;5009687;28;20113;-49
2023/07/21 05:12:25;;;;;;;8.85;3.90;;;23.10;51.00;;;;;;5002198;28;20101;-48
2023/07/21 05:15:13;;;;;;;11.00;3.53;;;23.10;51.00;;;;;;5026400;23;20125;-49
2023/07/21 05:17:55;;;;;;;10.68;3.45;;;23.10;51.00;;;;;;5007201;28;20452;-49
2023/07/21 05:20:30;;;;;;;7.13;3.08;;;23.10;51.10;;;;;;5000010;28;20029;-49
2023/07/21 05:23:07;;;;;;;6.32;2.88;;;23.10;51.20;;;;;;5002706;28;20101;-50
2023/07/21 05:26:01;;;;;;;6.55;2.80;;;23.10;51.20;;;;;;5001783;28;20497;-49
2023/07/21 05:28:31;;;;;;;6.03;2.63;;;23.10;51.30;;;;;;4983127;28;20057;-47
2023/07/21 05:30:57;;;;;;;7.28;2.47;;;23.10;51.20;;;;;;4995084;28;20030;-53
2023/07/21 05:33:31;;;;;;;6.68;2.67;;;23.10;51.30;;;;;;4989826;28;20041;-53
2023/07/21 05:36:09;;;;;;;5.00;2.67;;;23.10;51.40;;;;;;4980741;28;20050;-53
2023/07/21 05:38:37;;;;;;;8.75;3.08;;;23.10;51.40;;;;;;4992135;28;20545;-52
2023/07/21 05:41:04;;;;;;;7.25;2.60;;;23.10;51.30;;;;;;4997443;28;20027;-49
2023/07/21 05:43:32;;;;;;;6.72;2.60;;;23.10;51.30;;;;;;4978952;28;20037;-50
2023/07/21 05:46:01;;;;;;;9.68;2.90;;;23.10;51.40;;;;;;4989774;28;20026;-54
2023/07/21 05:48:27;;;;;;;5.80;2.58;;;23.10;51.40;;;;;;4987647;28;20500;-53
2023/07/21 05:50:57;;;;;;;9.63;2.35;;;23.10;51.40;;;;;;4994987;28;20537;-50
2023/07/21 05:53:24;;;;;;;7.25;3.13;;;23.10;51.40;;;;;;4995137;28;20056;-48
2023/07/21 05:55:50;;;;;;;7.68;2.85;;;23.10;51.40;;;;;;4996821;28;20022;-53
2023/07/21 05:58:24;;;;;;;13.75;3.60;;;23.10;51.40;;;;;;4998943;28;20442;-52
2023/07/21 06:00:50;;;;;;;8.57;4.05;;;23.00;51.40;;;;;;4993455;28;20034;-51
2023/07/21 06:03:17;;;;;;;10.57;3.97;;;23.00;51.40;;;;;;5002190;28;20401;-53
2023/07/21 06:05:44;;;;;;;10.40;3.80;;;23.00;51.40;;;;;;4994934;28;20042;-51
2023/07/21 06:08:30;;;;;;;6.80;3.50;;;23.00;51.50;;;;;;5005850;28;20513;-49
2023/07/21 06:11:20;;;;;;;11.98;3.97;;;23.00;51.50;;;;;;5011400;28;20030;-52
2023/07/21 06:13:59;;;;;;;9.55;4.28;;;23.00;51.50;;;;;;5004140;28;20122;-48
2023/07/21 06:16:35;;;;;;;9.35;4.20;;;23.00;51.50;;;;;;4987996;28;20109;-52
2023/07/21 06:19:01;;;;;;;7.65;3.65;;;23.10;51.40;;;;;;4989272;28;20030;-54
2023/07/21 06:21:26;;;;;;;8.25;3.85;;;23.00;51.20;;;;;;4999758;28;20038;-54
2023/07/21 06:23:53;;;;;;;10.75;3.60;;;23.00;51.30;;;;;;5001493;28;20104;-55
2023/07/21 06:26:20;;;;;;;7.97;3.42;;;23.00;51.30;;;;;;4996254;28;20031;-55
2023/07/21 06:28:46;;;;;;;12.60;3.55;;;23.00;51.20;;;;;;5000524;28;20034;-53
2023/07/21 06:31:15;;;;;;;8.93;3.70;;;23.00;51.30;;;;;;5000657;28;20038;-51
2023/07/21 06:33:51;;;;;;;11.25;5.50;;;23.00;51.50;;;;;;5004599;28;20284;-48
2023/07/21 06:36:35;;;;;;;11.63;4.50;;;23.00;51.30;;;;;;4986606;28;20018;-55
2023/07/21 06:39:14;;;;;;;12.67;4.97;;;23.00;51.30;;;;;;4990179;28;20102;-53
2023/07/21 06:41:55;;;;;;;10.98;4.40;;;23.00;51.40;;;;;;4991778;28;20045;-55
2023/07/21 06:44:40;;;;;;;14.55;4.47;;;23.00;51.60;;;;;;4987487;28;20497;-55
2023/07/21 06:47:33;;;;;;;13.05;3.85;;;23.10;51.50;;;;;;4990113;28;20103;-48
2023/07/21 06:50:20;;;;;;;9.90;4.05;;;23.00;51.50;;;;;;4986437;28;20094;-55
2023/07/21 06:52:50;;;;;;;9.10;4.10;;;23.00;51.50;;;;;;4969041;28;20598;-55
2023/07/21 06:55:16;;;;;;;14.45;4.05;;;23.00;51.50;;;;;;4984991;28;20034;-55
2023/07/21 06:57:42;;;;;;;11.25;4.47;;;23.00;51.50;;;;;;4987979;28;20073;-55
2023/07/21 07:00:12;;;;;;;8.00;4.13;;;23.00;51.30;;;;;;4981637;28;20541;-52
2023/07/21 07:02:39;;;;;;;11.90;3.97;;;23.00;51.60;;;;;;4986473;28;20054;-53
2023/07/21 07:05:05;;;;;;;21.65;3.90;;;23.10;52.00;;;;;;4975773;28;20038;-54
2023/07/21 07:07:31;;;;;;;16.70;4.28;;;23.10;51.60;;;;;;4978808;28;20027;-55
2023/07/21 07:09:57;;;;;;;15.38;4.70;;;23.10;51.70;;;;;;4973022;28;20069;-51
2023/07/21 07:12:23;;;;;;;23.83;5.53;;;23.20;51.90;;;;;;4968325;28;20034;-49
2023/07/21 07:14:49;;;;;;;18.20;4.97;;;23.20;52.10;;;;;;4962231;28;20490;-50
2023/07/21 07:17:15;;;;;;;18.95;5.10;;;23.20;51.80;;;;;;4984331;28;20034;-53
2023/07/21 07:19:40;;;;;;;14.82;4.80;;;23.20;51.60;;;;;;4981720;28;20055;-48
2023/07/21 07:22:09;;;;;;;18.13;4.90;;;23.30;52.30;;;;;;4974097;28;20038;-53
2023/07/21 07:24:37;;;;;;;17.35;4.97;;;23.30;51.90;;;;;;4984111;28;20026;-52
2023/07/21 07:27:03;;;;;;;15.15;5.63;;;23.30;51.60;;;;;;4974098;28;20586;-50
2023/07/21 07:29:29;;;;;;;15.77;5.30;;;23.30;51.80;;;;;;4972942;28;20031;-52
2023/07/21 07:31:55;;;;;;;19.88;7.65;;;23.30;52.10;;;;;;4974422;28;20039;-55
2023/07/21 07:34:21;;;;;;;38.25;6.45;;;23.30;52.10;;;;;;4984084;28;20035;-53
2023/07/21 07:36:48;;;;;;;20.55;6.88;;;23.40;53.10;;;;;;4983514;28;20097;-54
2023/07/21 07:39:15;;;;;;;23.55;7.05;;;23.40;52.80;;;;;;4971570;28;20023;-55
2023/07/21 07:41:41;;;;;;;27.52;7.68;;;23.40;52.60;;;;;;4985763;28;20041;-54
2023/07/21 07:44:08;;;;;;;21.95;7.03;;;23.40;52.00;;;;;;4977920;28;20039;-54
2023/07/21 07:46:35;;;;;;;21.98;6.78;;;23.40;52.60;;;;;;4972832;28;20464;-53
2023/07/21 07:49:00;;;;;;;21.95;7.28;;;23.40;52.60;;;;;;4976087;28;20026;-54
2023/07/21 07:51:27;;;;;;;18.48;6.45;;;23.40;54.10;;;;;;4981817;28;20437;-56
2023/07/21 07:53:53;;;;;;;14.48;6.00;;;23.40;52.60;;;;;;4981152;28;20406;-51
2023/07/21 07:56:21;;;;;;;21.23;6.55;;;23.50;52.70;;;;;;4974837;28;20054;-54
2023/07/21 07:58:47;;;;;;;23.50;8.20;;;23.40;53.60;;;;;;4984528;28;20039;-53
2023/07/21 08:01:13;;;;;;;22.45;8.27;;;23.40;52.70;;;;;;4980849;28;20027;-54
2023/07/21 08:03:43;;;;;;;24.45;10.23;;;23.40;52.10;;;;;;4985945;28;20083;-55
2023/07/21 08:06:13;;;;;;;26.10;9.07;;;23.30;51.20;;;;;;4972232;28;20089;-50
2023/07/21 08:08:40;;;;;;;23.95;8.73;;;23.40;51.90;;;;;;4969962;28;20549;-51
2023/07/21 08:11:06;;;;;;;23.63;9.07;;;23.70;53.40;;;;;;4974835;28;20033;-55
2023/07/21 08:13:32;;;;;;;29.70;9.45;;;23.80;53.00;;;;;;4970002;28;20023;-58
2023/07/21 08:15:58;;;;;;;31.15;9.13;;;23.60;53.90;;;;;;4973044;28;20766;-54
2023/07/21 08:18:24;;;;;;;30.55;9.10;;;23.60;53.60;;;;;;4983575;28;20045;-54
2023/07/21 08:20:51;;;;;;;21.67;7.97;;;23.50;53.80;;;;;;4979616;28;20031;-56
2023/07/21 08:23:16;;;;;;;25.25;8.48;;;23.50;55.20;;;;;;4979622;28;20450;-59
2023/07/21 08:25:42;;;;;;;24.20;8.88;;;23.40;55.30;;;;;;4984394;28;20038;-53
2023/07/21 08:28:08;;;;;;;20.55;8.38;;;23.40;55.00;;;;;;4984169;28;20037;-58
2023/07/21 08:30:35;;;;;;;25.63;7.60;;;23.40;56.00;;;;;;4971643;28;20030;-57
2023/07/21 08:33:02;;;;;;;17.27;7.22;;;23.40;56.50;;;;;;4977303;28;20514;-55
2023/07/21 08:35:28;;;;;;;25.38;8.10;;;23.30;57.00;;;;;;4975719;28;20154;-54
2023/07/21 08:37:56;;;;;;;21.85;7.93;;;23.40;56.60;;;;;;4975847;28;20144;-56
2023/07/21 08:40:24;;;;;;;17.58;7.55;;;23.30;54.70;;;;;;4978858;28;20086;-53
2023/07/21 08:42:50;;;;;;;20.20;7.63;;;23.30;56.50;;;;;;4983122;28;20038;-55
2023/07/21 08:45:19;;;;;;;22.30;8.07;;;23.40;57.20;;;;;;4987904;28;20038;-54
2023/07/21 08:47:45;;;;;;;32.67;7.38;;;23.40;55.80;;;;;;4984367;28;20121;-57
2023/07/21 08:50:17;;;;;;;33.65;6.70;;;23.40;56.10;;;;;;4979617;28;20053;-54
2023/07/21 08:52:42;;;;;;;16.33;6.07;;;23.50;55.70;;;;;;4976490;28;20497;-52
2023/07/21 08:55:09;;;;;;;25.20;6.70;;;23.40;54.30;;;;;;4984997;28;20034;-49
2023/07/21 08:57:35;;;;;;;18.17;6.20;;;23.40;57.10;;;;;;4970296;28;20023;-53
2023/07/21 09:00:03;;;;;;;24.88;7.00;;;23.40;55.60;;;;;;4971723;28;20076;-50
2023/07/21 09:02:45;;;;;;;20.17;6.20;;;23.40;56.00;;;;;;4972228;28;20101;-56
2023/07/21 09:05:18;;;;;;;24.60;6.50;;;23.40;55.70;;;;;;4971790;28;20031;-51
2023/07/21 09:07:45;;;;;;;26.83;7.47;;;23.40;55.90;;;;;;4970641;28;20479;-49
2023/07/21 09:10:12;;;;;;;18.95;6.60;;;23.40;56.50;;;;;;4973314;28;20533;-51
2023/07/21 09:12:38;;;;;;;25.92;6.18;;;23.30;55.00;;;;;;4968717;28;20064;-52
2023/07/21 09:15:11;;;;;;;24.13;6.07;;;23.30;55.30;;;;;;4973868;28;20038;-55
2023/07/21 09:17:42;;;;;;;27.23;6.60;;;23.40;56.00;;;;;;4969816;28;20039;-54
2023/07/21 09:20:09;;;;;;;21.40;6.22;;;23.30;56.10;;;;;;4970141;28;20026;-56
2023/07/21 09:22:35;;;;;;;21.48;6.60;;;23.40;56.60;;;;;;4969771;28;20049;-53
2023/07/21 09:25:01;;;;;;;17.52;5.95;;;23.40;55.90;;;;;;4972784;28;20038;-55
2023/07/21 09:27:26;;;;;;;18.33;6.05;;;23.30;56.10;;;;;;4971811;28;20177;-56
2023/07/21 09:30:03;;;;;;;20.75;5.65;;;23.40;55.70;;;;;;4971265;28;20532;-50
2023/07/21 09:32:40;;;;;;;15.00;5.47;;;23.30;56.10;;;;;;4969221;28;20031;-53
2023/07/21 09:35:06;;;;;;;16.33;5.68;;;23.40;56.50;;;;;;4981485;28;20483;-53
2023/07/21 09:37:34;;;;;;;16.73;4.80;;;23.30;55.70;;;;;;4973313;28;20030;-50
2023/07/21 09:40:05;;;;;;;15.57;5.10;;;23.30;55.20;;;;;;4980998;28;20037;-52
2023/07/21 09:42:32;;;;;;;15.65;5.93;;;23.30;55.60;;;;;;4973114;28;20030;-56
2023/07/21 09:44:58;;;;;;;17.88;4.68;;;23.30;56.20;;;;;;4975604;28;20042;-54
2023/07/21 09:47:25;;;;;;;13.25;4.75;;;23.30;55.10;;;;;;4972678;28;20065;-51
2023/07/21 09:49:53;;;;;;;16.92;4.38;;;23.30;55.20;;;;;;4978984;28;20592;-54
2023/07/21 09:52:20;;;;;;;14.93;4.53;;;23.40;54.90;;;;;;4976111;28;20065;-49
2023/07/21 09:55:06;;;;;;;15.68;3.75;;;23.30;54.70;;;;;;4978123;28;20030;-54
2023/07/21 09:57:35;;;;;;;10.57;4.45;;;23.40;54.90;;;;;;4972628;28;20035;-51
2023/07/21 10:00:07;;;;;;;15.00;4.47;;;23.30;54.90;;;;;;4972384;28;20102;-56
2023/07/21 10:02:39;;;;;;;14.70;4.90;;;23.30;55.20;;;;;;4972826;28;20040;-52
2023/07/21 10:05:06;;;;;;;26.73;5.00;;;23.30;55.90;;;;;;4972152;28;20105;-54
2023/07/21 10:07:33;;;;;;;14.95;4.65;;;23.40;56.40;;;;;;4972378;28;20034;-54
2023/07/21 10:10:00;;;;;;;9.40;3.75;;;23.30;55.80;;;;;;4973470;28;20498;-51
2023/07/21 10:12:49;;;;;;;14.75;4.72;;;23.40;55.80;;;;;;4971717;28;20042;-51
2023/07/21 10:15:29;;;;;;;13.75;3.88;;;23.40;55.40;;;;;;4971970;28;20082;-54
2023/07/21 10:17:57;;;;;;;15.35;4.72;;;23.40;55.30;;;;;;4973710;28;20039;-55
2023/07/21 10:20:41;;;;;;;12.20;4.82;;;23.30;55.60;;;;;;4972299;28;20030;-55
2023/07/21 10:23:07;;;;;;;10.82;3.92;;;23.40;55.70;;;;;;4972102;28;20093;-53
2023/07/21 10:25:45;;;;;;;9.45;3.92;;;23.40;55.40;;;;;;4976900;28;20037;-53
2023/07/21 10:28:13;;;;;;;8.48;3.80;;;23.40;55.50;;;;;;4970503;28;20049;-52
2023/07/21 10:30:38;;;;;;;16.02;3.92;;;23.40;55.10;;;;;;4974384;28;20150;-54
2023/07/21 10:33:20;;;;;;;14.48;4.20;;;23.40;56.10;;;;;;4971331;28;20038;-54
2023/07/21 10:35:47;;;;;;;14.45;4.10;;;23.40;56.10;;;;;;4972007;28;20573;-49
2023/07/21 10:38:13;;;;;;;15.07;4.10;;;23.40;55.60;;;;;;4972598;28;20517;-50
2023/07/21 10:40:46;;;;;;;12.00;4.03;;;23.50;55.50;;;;;;4981214;28;20043;-51
2023/07/21 10:43:12;;;;;;;11.73;3.97;;;23.60;55.40;;;;;;4973245;28;20101;-50
2023/07/21 10:45:38;;;;;;;8.48;3.55;;;23.60;55.90;;;;;;4971241;28;20487;-53
2023/07/21 10:48:15;;;;;;;9.73;3.85;;;23.70;55.40;;;;;;4976026;28;20101;-53
2023/07/21 10:50:51;;;;;;;10.35;3.67;;;23.60;55.90;;;;;;4977736;28;20034;-55
2023/07/21 10:53:17;;;;;;;18.23;3.92;;;23.60;56.20;;;;;;4971544;28;20066;-57
2023/07/21 10:55:43;;;;;;;20.25;4.50;;;23.60;56.40;;;;;;4971543;28;20041;-55
2023/07/21 10:58:08;;;;;;;18.33;3.63;;;23.60;56.10;;;;;;4971769;28;20031;-56
2023/07/21 11:00:55;;;;;;;11.98;3.30;;;23.60;55.20;;;;;;4971513;28;20549;-52
2023/07/21 11:03:21;;;;;;;12.25;3.33;;;23.50;55.20;;;;;;4971905;28;20037;-56
2023/07/21 11:05:46;;;;;;;9.25;2.92;;;23.50;54.00;;;;;;4976982;28;20030;-55
2023/07/21 11:08:26;;;;;;;13.52;3.20;;;23.50;53.40;;;;;;4971392;28;20093;-58
2023/07/21 11:10:52;;;;;;;10.38;3.35;;;23.40;54.10;;;;;;4973368;28;20101;-54
2023/07/21 11:13:18;;;;;;;12.27;3.72;;;23.40;54.20;;;;;;4978627;28;20030;-49
2023/07/21 11:15:54;;;;;;;11.45;3.50;;;23.50;54.70;;;;;;4973362;28;20035;-51
2023/07/21 11:18:20;;;;;;;10.23;3.10;;;23.50;54.80;;;;;;4969769;28;20129;-51
2023/07/21 11:20:53;;;;;;;11.50;3.83;;;23.50;54.40;;;;;;4971481;28;20030;-55
2023/07/21 11:23:23;;;;;;;10.27;3.45;;;23.50;54.50;;;;;;4970261;28;20030;-56
2023/07/21 11:26:18;;;;;;;11.25;3.47;;;23.50;54.60;;;;;;4970861;28;20031;-52
2023/07/21 11:28:44;;;;;;;11.90;3.72;;;23.50;54.80;;;;;;4934885;29;20052;-52
2023/07/21 11:31:14;;;;;;;7.32;3.10;;;23.50;54.80;;;;;;4930034;29;20050;-51
2023/07/21 11:33:43;;;;;;;;;;;23.50;54.80;;;;;;4936130;29;20036;-54
2023/07/21 11:36:15;;;;;;;7.55;2.97;;;23.50;54.90;;;;;;4929800;29;20378;-54
2023/07/21 11:38:54;;;;;;;10.75;3.15;;;23.40;55.60;;;;;;4931662;29;20047;-53
2023/07/21 11:41:39;;;;;;;9.23;2.88;;;23.50;54.90;;;;;;4929703;29;20032;-56
2023/07/21 11:44:14;;;;;;;9.52;3.22;;;23.40;55.10;;;;;;4930184;29;20306;-50
2023/07/21 11:46:40;;;;;;;6.72;3.25;;;23.40;54.90;;;;;;4937952;29;20043;-55
2023/07/21 11:49:11;;;;;;;13.85;2.90;;;23.40;55.20;;;;;;4929708;29;20115;-56
2023/07/21 11:51:48;;;;;;;12.10;3.20;;;23.40;55.30;;;;;;4932642;29;20054;-50
2023/07/21 11:54:25;;;;;;;9.63;2.72;;;23.40;55.30;;;;;;4929773;29;20138;-53
2023/07/21 11:56:52;;;;;;;9.45;3.38;;;23.40;55.50;;;;;;4928879;29;20035;-49
2023/07/21 11:59:19;;;;;;;7.60;3.10;;;23.40;55.50;;;;;;4929674;29;20411;-51
2023/07/21 12:01:46;;;;;;;11.55;3.33;;;23.40;55.40;;;;;;4942131;29;20043;-55
2023/07/21 12:04:12;;;;;;;9.48;3.30;;;23.40;55.50;;;;;;4933586;28;20046;-57
2023/07/21 12:06:39;;;;;;;8.07;3.15;;;23.40;55.40;;;;;;4970727;28;20403;-56
2023/07/21 12:09:06;;;;;;;16.13;3.33;;;23.40;55.40;;;;;;4971994;28;20422;-51
2023/07/21 12:11:36;;;;;;;16.30;3.63;;;23.40;56.30;;;;;;4970098;28;20027;-55
2023/07/21 12:14:03;;;;;;;18.13;3.58;;;23.40;57.00;;;;;;4974551;28;20030;-56
2023/07/21 12:16:29;;;;;;;14.73;3.08;;;23.40;57.20;;;;;;4969708;28;20030;-56
2023/07/21 12:18:56;;;;;;;15.35;3.53;;;23.40;56.90;;;;;;4970572;28;20514;-54
2023/07/21 12:21:26;;;;;;;21.92;3.92;;;23.40;56.70;;;;;;4971111;28;20379;-51
2023/07/21 12:23:52;;;;;;;14.25;4.05;;;23.40;56.50;;;;;;4969422;28;20514;-52
2023/07/21 12:26:19;;;;;;;14.55;3.30;;;23.40;56.60;;;;;;4971548;28;20032;-52
2023/07/21 12:28:48;;;;;;;11.15;3.60;;;23.40;56.70;;;;;;4969856;28;20035;-51
2023/07/21 12:31:20;;;;;;;20.13;3.88;;;23.40;56.90;;;;;;4970479;28;20099;-54
2023/07/21 12:33:48;;;;;;;16.75;3.88;;;23.50;57.10;;;;;;4970240;28;20030;-54
2023/07/21 12:36:15;;;;;;;12.43;4.18;;;23.50;57.00;;;;;;4969670;28;20395;-58
2023/07/21 12:38:42;;;;;;;17.63;3.92;;;23.50;56.60;;;;;;4970087;28;20473;-58
2023/07/21 12:41:08;;;;;;;17.58;3.85;;;23.50;56.70;;;;;;4970832;28;20034;-55
2023/07/21 12:43:36;;;;;;;15.07;3.60;;;23.60;57.10;;;;;;4968244;28;20053;-53
2023/07/21 12:46:02;;;;;;;17.73;3.95;;;23.50;56.30;;;;;;4970507;28;20038;-55
2023/07/21 12:48:30;;;;;;;16.30;3.60;;;23.50;56.50;;;;;;4976922;28;20105;-53
2023/07/21 12:51:00;;;;;;;14.65;3.20;;;23.50;56.80;;;;;;4970367;28;20023;-56
2023/07/21 12:53:26;;;;;;;;;;;23.50;57.10;;;;;;4969968;28;20233;-56